sensor_id;sensor_type;location;lat;lon;timestamp;pressure;altitude;pressure_sealevel;temperature;humidity
18819;BME280;9537;45.594;9.294;2023-12-04T00:00:07;100409.63;;;1.68;77.05
18819;BME280;9537;45.594;9.294;2023-12-04T00:01:10;100409.00;;;1.64;77.30
18819;BME280;9537;45.594;9.294;2023-12-04T00:02:11;100407.31;;;1.63;77.24
18819;BME280;9537;45.594;9.294;2023-12-04T00:03:12;100403.97;;;1.61;76.76
18819;BME280;9537;45.594;9.294;2023-12-04T00:04:14;100404.25;;;1.56;77.20
18819;BME280;9537;45.594;9.294;2023-12-04T00:05:15;100406.22;;;1.53;76.90
18819;BME280;9537;45.594;9.294;2023-12-04T00:06:16;100404.75;;;1.49;77.08
18819;BME280;9537;45.594;9.294;2023-12-04T00:07:17;100401.97;;;1.52;77.27
18819;BME280;9537;45.594;9.294;2023-12-04T00:08:18;100400.28;;;1.51;77.16
18819;BME280;9537;45.594;9.294;2023-12-04T00:09:19;100392.47;;;1.51;77.75
18819;BME280;9537;45.594;9.294;2023-12-04T00:10:21;100393.28;;;1.51;78.55
18819;BME280;9537;45.594;9.294;2023-12-04T00:11:22;100396.75;;;1.52;77.98
18819;BME280;9537;45.594;9.294;2023-12-04T00:12:23;100388.81;;;1.53;78.36
18819;BME280;9537;45.594;9.294;2023-12-04T00:13:26;100385.19;;;1.56;78.63
18819;BME280;9537;45.594;9.294;2023-12-04T00:14:26;100381.66;;;1.57;78.80
18819;BME280;9537;45.594;9.294;2023-12-04T00:15:27;100385.00;;;1.59;78.40
18819;BME280;9537;45.594;9.294;2023-12-04T00:16:33;100381.66;;;1.57;78.66
18819;BME280;9537;45.594;9.294;2023-12-04T00:17:34;100382.50;;;1.57;78.78
18819;BME280;9537;45.594;9.294;2023-12-04T00:18:39;100383.34;;;1.58;79.17
18819;BME280;9537;45.594;9.294;2023-12-04T00:19:40;100390.22;;;1.59;79.10
18819;BME280;9537;45.594;9.294;2023-12-04T00:20:42;100394.38;;;1.62;78.93
18819;BME280;9537;45.594;9.294;2023-12-04T00:21:43;100393.44;;;1.63;79.09
18819;BME280;9537;45.594;9.294;2023-12-04T00:22:45;100392.53;;;1.64;79.18
18819;BME280;9537;45.594;9.294;2023-12-04T00:23:46;100390.75;;;1.64;79.42
18819;BME280;9537;45.594;9.294;2023-12-04T00:24:48;100391.50;;;1.66;79.91
18819;BME280;9537;45.594;9.294;2023-12-04T00:25:48;100388.03;;;1.66;78.95
18819;BME280;9537;45.594;9.294;2023-12-04T00:26:51;100384.31;;;1.70;78.03
18819;BME280;9537;45.594;9.294;2023-12-04T00:27:53;100390.66;;;1.66;78.00
18819;BME280;9537;45.594;9.294;2023-12-04T00:28:53;100387.41;;;1.62;78.42
18819;BME280;9537;45.594;9.294;2023-12-04T00:29:56;100389.09;;;1.63;78.47
18819;BME280;9537;45.594;9.294;2023-12-04T00:30:56;100396.16;;;1.61;77.68
18819;BME280;9537;45.594;9.294;2023-12-04T00:31:59;100389.38;;;1.58;77.72
18819;BME280;9537;45.594;9.294;2023-12-04T00:33:00;100385.94;;;1.58;78.32
18819;BME280;9537;45.594;9.294;2023-12-04T00:34:01;100391.88;;;1.60;78.58
18819;BME280;9537;45.594;9.294;2023-12-04T00:35:04;100383.34;;;1.58;78.01
18819;BME280;9537;45.594;9.294;2023-12-04T00:36:06;100388.56;;;1.58;78.61
18819;BME280;9537;45.594;9.294;2023-12-04T00:37:08;100380.94;;;1.55;78.33
18819;BME280;9537;45.594;9.294;2023-12-04T00:38:09;100384.25;;;1.57;78.54
18819;BME280;9537;45.594;9.294;2023-12-04T00:39:11;100386.84;;;1.57;78.96
18819;BME280;9537;45.594;9.294;2023-12-04T00:40:12;100391.97;;;1.58;79.05
18819;BME280;9537;45.594;9.294;2023-12-04T00:41:14;100388.44;;;1.60;78.92
18819;BME280;9537;45.594;9.294;2023-12-04T00:42:14;100390.00;;;1.62;79.38
18819;BME280;9537;45.594;9.294;2023-12-04T00:43:16;100381.28;;;1.63;79.28
18819;BME280;9537;45.594;9.294;2023-12-04T00:44:17;100376.16;;;1.62;79.33
18819;BME280;9537;45.594;9.294;2023-12-04T00:45:19;100377.75;;;1.64;79.54
18819;BME280;9537;45.594;9.294;2023-12-04T00:46:20;100385.56;;;1.64;79.11
18819;BME280;9537;45.594;9.294;2023-12-04T00:47:23;100378.56;;;1.65;78.48
18819;BME280;9537;45.594;9.294;2023-12-04T00:48:24;100385.56;;;1.64;78.05
18819;BME280;9537;45.594;9.294;2023-12-04T00:49:26;100384.72;;;1.64;77.82
18819;BME280;9537;45.594;9.294;2023-12-04T00:50:27;100383.88;;;1.63;78.38
18819;BME280;9537;45.594;9.294;2023-12-04T00:51:29;100373.47;;;1.63;77.99
18819;BME280;9537;45.594;9.294;2023-12-04T00:52:29;100375.13;;;1.64;78.16
18819;BME280;9537;45.594;9.294;2023-12-04T00:53:31;100371.91;;;1.61;77.93
18819;BME280;9537;45.594;9.294;2023-12-04T00:54:32;100362.59;;;1.56;77.43
18819;BME280;9537;45.594;9.294;2023-12-04T00:55:34;100366.97;;;1.56;77.35
18819;BME280;9537;45.594;9.294;2023-12-04T00:56:37;100368.63;;;1.57;77.43
18819;BME280;9537;45.594;9.294;2023-12-04T00:57:39;100375.53;;;1.58;78.15
18819;BME280;9537;45.594;9.294;2023-12-04T00:58:40;100376.25;;;1.60;78.23
18819;BME280;9537;45.594;9.294;2023-12-04T00:59:42;100374.31;;;1.64;77.66
18819;BME280;9537;45.594;9.294;2023-12-04T01:00:42;100378.13;;;1.58;78.25
18819;BME280;9537;45.594;9.294;2023-12-04T01:01:44;100380.94;;;1.55;77.61
18819;BME280;9537;45.594;9.294;2023-12-04T01:02:46;100383.53;;;1.55;78.16
18819;BME280;9537;45.594;9.294;2023-12-04T01:03:50;100370.81;;;1.50;77.69
18819;BME280;9537;45.594;9.294;2023-12-04T01:04:50;100378.81;;;1.47;78.73
18819;BME280;9537;45.594;9.294;2023-12-04T01:05:52;100372.84;;;1.45;78.84
18819;BME280;9537;45.594;9.294;2023-12-04T01:06:53;100379.09;;;1.43;79.17
18819;BME280;9537;45.594;9.294;2023-12-04T01:07:54;100372.97;;;1.44;78.52
18819;BME280;9537;45.594;9.294;2023-12-04T01:08:56;100379.09;;;1.43;78.85
18819;BME280;9537;45.594;9.294;2023-12-04T01:09:57;100373.69;;;1.46;79.14
18819;BME280;9537;45.594;9.294;2023-12-04T01:10:59;100376.47;;;1.43;79.06
18819;BME280;9537;45.594;9.294;2023-12-04T01:11:59;100380.97;;;1.41;79.30
18819;BME280;9537;45.594;9.294;2023-12-04T01:13:02;100380.03;;;1.42;79.08
18819;BME280;9537;45.594;9.294;2023-12-04T01:14:03;100382.44;;;1.45;79.05
18819;BME280;9537;45.594;9.294;2023-12-04T01:15:06;100380.66;;;1.45;79.00
18819;BME280;9537;45.594;9.294;2023-12-04T01:16:07;100378.88;;;1.46;79.76
18819;BME280;9537;45.594;9.294;2023-12-04T01:17:10;100380.59;;;1.47;79.78
18819;BME280;9537;45.594;9.294;2023-12-04T01:18:12;100380.59;;;1.47;79.88
18819;BME280;9537;45.594;9.294;2023-12-04T01:19:14;100383.06;;;1.48;79.83
18819;BME280;9537;45.594;9.294;2023-12-04T01:20:15;100378.19;;;1.44;79.96
18819;BME280;9537;45.594;9.294;2023-12-04T01:21:17;100381.81;;;1.41;80.21
18819;BME280;9537;45.594;9.294;2023-12-04T01:22:19;100385.22;;;1.42;80.02
18819;BME280;9537;45.594;9.294;2023-12-04T01:23:21;100382.72;;;1.40;79.92
18819;BME280;9537;45.594;9.294;2023-12-04T01:24:24;100393.88;;;1.42;79.91
18819;BME280;9537;45.594;9.294;2023-12-04T01:25:26;100382.63;;;1.42;80.78
18819;BME280;9537;45.594;9.294;2023-12-04T01:26:27;100383.38;;;1.44;79.90
18819;BME280;9537;45.594;9.294;2023-12-04T01:27:27;100383.25;;;1.45;80.09
18819;BME280;9537;45.594;9.294;2023-12-04T01:28:29;100392.03;;;1.44;79.84
18819;BME280;9537;45.594;9.294;2023-12-04T01:29:30;100382.44;;;1.45;80.56
18819;BME280;9537;45.594;9.294;2023-12-04T01:30:33;100393.69;;;1.45;80.66
18819;BME280;9537;45.594;9.294;2023-12-04T01:31:33;100394.44;;;1.47;80.15
18819;BME280;9537;45.594;9.294;2023-12-04T01:32:35;100391.81;;;1.47;79.87
18819;BME280;9537;45.594;9.294;2023-12-04T01:33:37;100396.19;;;1.47;79.36
18819;BME280;9537;45.594;9.294;2023-12-04T01:34:39;100395.25;;;1.48;79.48
18819;BME280;9537;45.594;9.294;2023-12-04T01:35:40;100392.66;;;1.48;79.89
18819;BME280;9537;45.594;9.294;2023-12-04T01:36:42;100396.19;;;1.47;79.99
18819;BME280;9537;45.594;9.294;2023-12-04T01:37:43;100394.44;;;1.47;79.67
18819;BME280;9537;45.594;9.294;2023-12-04T01:38:45;100395.38;;;1.46;79.50
18819;BME280;9537;45.594;9.294;2023-12-04T01:39:46;100395.38;;;1.46;79.43
18819;BME280;9537;45.594;9.294;2023-12-04T01:40:47;100387.66;;;1.45;80.06
18819;BME280;9537;45.594;9.294;2023-12-04T01:41:49;100398.06;;;1.45;79.77
18819;BME280;9537;45.594;9.294;2023-12-04T01:42:50;100385.88;;;1.45;79.79
18819;BME280;9537;45.594;9.294;2023-12-04T01:43:52;100386.63;;;1.47;79.78
18819;BME280;9537;45.594;9.294;2023-12-04T01:44:52;100385.66;;;1.48;80.42
18819;BME280;9537;45.594;9.294;2023-12-04T01:45:55;100393.47;;;1.48;80.69
18819;BME280;9537;45.594;9.294;2023-12-04T01:46:55;100392.47;;;1.51;80.94
18819;BME280;9537;45.594;9.294;2023-12-04T01:47:58;100397.66;;;1.51;80.43
18819;BME280;9537;45.594;9.294;2023-12-04T01:49:00;100388.94;;;1.52;80.60
18819;BME280;9537;45.594;9.294;2023-12-04T01:50:04;100395.06;;;1.51;80.41
18819;BME280;9537;45.594;9.294;2023-12-04T01:51:07;100393.28;;;1.51;80.77
18819;BME280;9537;45.594;9.294;2023-12-04T01:52:10;100394.16;;;1.52;80.66
18819;BME280;9537;45.594;9.294;2023-12-04T01:53:13;100388.94;;;1.52;80.03
18819;BME280;9537;45.594;9.294;2023-12-04T01:54:14;100392.47;;;1.51;80.50
18819;BME280;9537;45.594;9.294;2023-12-04T01:55:16;100391.53;;;1.52;80.57
18819;BME280;9537;45.594;9.294;2023-12-04T01:56:19;100392.25;;;1.54;80.50
18819;BME280;9537;45.594;9.294;2023-12-04T01:57:20;100386.03;;;1.56;80.96
18819;BME280;9537;45.594;9.294;2023-12-04T01:58:23;100385.19;;;1.56;80.91
18819;BME280;9537;45.594;9.294;2023-12-04T01:59:25;100383.34;;;1.58;80.67
18819;BME280;9537;45.594;9.294;2023-12-04T02:00:27;100383.44;;;1.56;80.58
18819;BME280;9537;45.594;9.294;2023-12-04T02:01:29;100385.13;;;1.57;81.52
18819;BME280;9537;45.594;9.294;2023-12-04T02:02:30;100378.13;;;1.58;81.44
18819;BME280;9537;45.594;9.294;2023-12-04T02:03:33;100381.47;;;1.60;81.35
18819;BME280;9537;45.594;9.294;2023-12-04T02:04:35;100386.50;;;1.63;80.91
18819;BME280;9537;45.594;9.294;2023-12-04T02:05:37;100385.75;;;1.61;81.05
18819;BME280;9537;45.594;9.294;2023-12-04T02:06:38;100384.81;;;1.62;81.22
18819;BME280;9537;45.594;9.294;2023-12-04T02:07:41;100378.75;;;1.62;81.48
18819;BME280;9537;45.594;9.294;2023-12-04T02:08:43;100383.03;;;1.63;81.03
18819;BME280;9537;45.594;9.294;2023-12-04T02:09:46;100383.16;;;1.61;81.11
18819;BME280;9537;45.594;9.294;2023-12-04T02:10:47;100388.34;;;1.61;81.88
18819;BME280;9537;45.594;9.294;2023-12-04T02:11:48;100392.19;;;1.55;82.13
18819;BME280;9537;45.594;9.294;2023-12-04T02:12:49;100391.03;;;1.60;81.46
18819;BME280;9537;45.594;9.294;2023-12-04T02:13:51;100394.66;;;1.57;81.52
18819;BME280;9537;45.594;9.294;2023-12-04T02:14:52;100388.56;;;1.58;82.00
18819;BME280;9537;45.594;9.294;2023-12-04T02:15:56;100382.59;;;1.56;82.35
18819;BME280;9537;45.594;9.294;2023-12-04T02:17:00;100385.94;;;1.58;81.60
18819;BME280;9537;45.594;9.294;2023-12-04T02:18:02;100381.56;;;1.58;81.77
18819;BME280;9537;45.594;9.294;2023-12-04T02:19:03;100382.41;;;1.59;82.24
18819;BME280;9537;45.594;9.294;2023-12-04T02:20:08;100377.19;;;1.59;82.48
18819;BME280;9537;45.594;9.294;2023-12-04T02:21:09;100374.59;;;1.59;82.59
18819;BME280;9537;45.594;9.294;2023-12-04T02:22:11;100367.53;;;1.61;82.19
18819;BME280;9537;45.594;9.294;2023-12-04T02:23:12;100371.69;;;1.64;82.72
18819;BME280;9537;45.594;9.294;2023-12-04T02:24:15;100375.13;;;1.64;82.68
18819;BME280;9537;45.594;9.294;2023-12-04T02:25:16;100368.97;;;1.65;82.54
18819;BME280;9537;45.594;9.294;2023-12-04T02:26:24;100374.94;;;1.67;82.14
18819;BME280;9537;45.594;9.294;2023-12-04T02:27:32;100383.59;;;1.68;82.81
18819;BME280;9537;45.594;9.294;2023-12-04T02:28:36;100379.19;;;1.68;82.34
18819;BME280;9537;45.594;9.294;2023-12-04T02:29:42;100382.75;;;1.67;83.30
18819;BME280;9537;45.594;9.294;2023-12-04T02:30:47;100382.00;;;1.65;82.53
18819;BME280;9537;45.594;9.294;2023-12-04T02:31:51;100372.53;;;1.64;83.31
18819;BME280;9537;45.594;9.294;2023-12-04T02:32:54;100376.78;;;1.65;82.63
18819;BME280;9537;45.594;9.294;2023-12-04T02:33:57;100372.41;;;1.66;83.05
18819;BME280;9537;45.594;9.294;2023-12-04T02:35:02;100371.50;;;1.67;82.69
18819;BME280;9537;45.594;9.294;2023-12-04T02:36:06;100372.34;;;1.67;83.59
18819;BME280;9537;45.594;9.294;2023-12-04T02:37:08;100373.06;;;1.69;82.89
18819;BME280;9537;45.594;9.294;2023-12-04T02:38:11;100368.78;;;1.68;83.44
18819;BME280;9537;45.594;9.294;2023-12-04T02:39:14;100377.44;;;1.69;83.00
18819;BME280;9537;45.594;9.294;2023-12-04T02:40:16;100372.06;;;1.72;83.56
18819;BME280;9537;45.594;9.294;2023-12-04T02:41:17;100373.06;;;1.69;83.27
18819;BME280;9537;45.594;9.294;2023-12-04T02:42:18;100380.03;;;1.69;83.78
18819;BME280;9537;45.594;9.294;2023-12-04T02:43:20;100374.75;;;1.70;83.59
18819;BME280;9537;45.594;9.294;2023-12-04T02:44:21;100375.47;;;1.72;83.38
18819;BME280;9537;45.594;9.294;2023-12-04T02:45:23;100377.34;;;1.70;83.61
18819;BME280;9537;45.594;9.294;2023-12-04T02:46:23;100370.28;;;1.72;83.10
18819;BME280;9537;45.594;9.294;2023-12-04T02:47:25;100367.56;;;1.74;83.17
18819;BME280;9537;45.594;9.294;2023-12-04T02:48:26;100371.94;;;1.73;83.33
18819;BME280;9537;45.594;9.294;2023-12-04T02:49:28;100372.88;;;1.72;83.10
18819;BME280;9537;45.594;9.294;2023-12-04T02:50:28;100380.69;;;1.72;83.08
18819;BME280;9537;45.594;9.294;2023-12-04T02:51:30;100374.00;;;1.68;83.88
18819;BME280;9537;45.594;9.294;2023-12-04T02:52:31;100373.91;;;1.70;83.70
18819;BME280;9537;45.594;9.294;2023-12-04T02:53:32;100383.38;;;1.71;83.35
18819;BME280;9537;45.594;9.294;2023-12-04T02:54:37;100379.88;;;1.72;83.47
18819;BME280;9537;45.594;9.294;2023-12-04T02:55:38;100377.06;;;1.75;84.11
18819;BME280;9537;45.594;9.294;2023-12-04T02:56:40;100371.09;;;1.73;83.49
18819;BME280;9537;45.594;9.294;2023-12-04T02:57:40;100382.34;;;1.73;84.10
18819;BME280;9537;45.594;9.294;2023-12-04T02:58:43;100379.75;;;1.73;84.29
18819;BME280;9537;45.594;9.294;2023-12-04T02:59:43;100374.47;;;1.75;84.02
18819;BME280;9537;45.594;9.294;2023-12-04T03:00:45;100375.28;;;1.75;84.05
18819;BME280;9537;45.594;9.294;2023-12-04T03:01:46;100370.91;;;1.76;83.94
18819;BME280;9537;45.594;9.294;2023-12-04T03:02:48;100370.69;;;1.79;83.99
18819;BME280;9537;45.594;9.294;2023-12-04T03:03:48;100372.28;;;1.82;84.23
18819;BME280;9537;45.594;9.294;2023-12-04T03:04:49;100367.81;;;1.84;84.07
18819;BME280;9537;45.594;9.294;2023-12-04T03:05:51;100373.84;;;1.84;84.26
18819;BME280;9537;45.594;9.294;2023-12-04T03:06:52;100370.50;;;1.82;84.01
18819;BME280;9537;45.594;9.294;2023-12-04T03:07:53;100368.72;;;1.83;84.11
18819;BME280;9537;45.594;9.294;2023-12-04T03:08:54;100371.13;;;1.86;84.18
18819;BME280;9537;45.594;9.294;2023-12-04T03:09:57;100368.53;;;1.86;83.84
18819;BME280;9537;45.594;9.294;2023-12-04T03:10:58;100358.84;;;1.88;84.50
18819;BME280;9537;45.594;9.294;2023-12-04T03:12:00;100370.03;;;1.90;84.07
18819;BME280;9537;45.594;9.294;2023-12-04T03:13:01;100362.94;;;1.92;84.44
18819;BME280;9537;45.594;9.294;2023-12-04T03:14:03;100355.97;;;1.92;84.34
18819;BME280;9537;45.594;9.294;2023-12-04T03:15:04;100355.13;;;1.92;84.40
18819;BME280;9537;45.594;9.294;2023-12-04T03:16:06;100358.44;;;1.94;84.10
18819;BME280;9537;45.594;9.294;2023-12-04T03:17:16;100359.94;;;1.98;84.86
18819;BME280;9537;45.594;9.294;2023-12-04T03:18:16;100356.38;;;1.99;84.74
18819;BME280;9537;45.594;9.294;2023-12-04T03:19:18;100355.34;;;2.01;84.17
18819;BME280;9537;45.594;9.294;2023-12-04T03:20:19;100351.91;;;2.01;84.73
18819;BME280;9537;45.594;9.294;2023-12-04T03:21:21;100349.09;;;2.04;84.40
18819;BME280;9537;45.594;9.294;2023-12-04T03:22:21;100354.31;;;2.04;84.79
18819;BME280;9537;45.594;9.294;2023-12-04T03:23:23;100354.13;;;2.07;85.09
18819;BME280;9537;45.594;9.294;2023-12-04T03:24:24;100354.94;;;2.08;84.85
18819;BME280;9537;45.594;9.294;2023-12-04T03:25:27;100341.81;;;2.09;85.21
18819;BME280;9537;45.594;9.294;2023-12-04T03:26:28;100353.91;;;2.10;85.23
18819;BME280;9537;45.594;9.294;2023-12-04T03:27:29;100344.44;;;2.09;85.04
18819;BME280;9537;45.594;9.294;2023-12-04T03:28:30;100342.53;;;2.11;84.90
18819;BME280;9537;45.594;9.294;2023-12-04T03:29:33;100345.97;;;2.12;84.75
18819;BME280;9537;45.594;9.294;2023-12-04T03:30:34;100339.84;;;2.13;85.33
18819;BME280;9537;45.594;9.294;2023-12-04T03:31:36;100335.56;;;2.12;84.80
18819;BME280;9537;45.594;9.294;2023-12-04T03:32:38;100345.88;;;2.13;84.91
18819;BME280;9537;45.594;9.294;2023-12-04T03:33:40;100344.22;;;2.12;85.11
18819;BME280;9537;45.594;9.294;2023-12-04T03:34:41;100341.50;;;2.14;85.28
18819;BME280;9537;45.594;9.294;2023-12-04T03:35:43;100337.66;;;2.07;84.94
18819;BME280;9537;45.594;9.294;2023-12-04T03:36:44;100341.81;;;2.09;85.14
18819;BME280;9537;45.594;9.294;2023-12-04T03:37:46;100347.31;;;2.05;85.30
18819;BME280;9537;45.594;9.294;2023-12-04T03:38:47;100345.56;;;2.05;85.62
18819;BME280;9537;45.594;9.294;2023-12-04T03:39:50;100343.06;;;2.03;85.30
18819;BME280;9537;45.594;9.294;2023-12-04T03:40:52;100350.03;;;2.03;85.67
18819;BME280;9537;45.594;9.294;2023-12-04T03:41:56;100344.81;;;2.03;85.15
18819;BME280;9537;45.594;9.294;2023-12-04T03:42:57;100346.50;;;2.04;85.24
18819;BME280;9537;45.594;9.294;2023-12-04T03:43:59;100333.47;;;2.04;85.51
18819;BME280;9537;45.594;9.294;2023-12-04T03:45:00;100334.50;;;2.01;85.26
18819;BME280;9537;45.594;9.294;2023-12-04T03:46:02;100336.16;;;2.02;85.26
18819;BME280;9537;45.594;9.294;2023-12-04T03:47:03;100326.56;;;2.03;85.31
18819;BME280;9537;45.594;9.294;2023-12-04T03:48:04;100332.53;;;2.05;85.77
18819;BME280;9537;45.594;9.294;2023-12-04T03:49:06;100337.00;;;2.03;85.33
18819;BME280;9537;45.594;9.294;2023-12-04T03:50:07;100331.69;;;2.05;85.35
18819;BME280;9537;45.594;9.294;2023-12-04T03:51:09;100324.72;;;2.05;85.77
18819;BME280;9537;45.594;9.294;2023-12-04T03:52:09;100329.91;;;2.05;85.65
18819;BME280;9537;45.594;9.294;2023-12-04T03:53:11;100317.00;;;2.03;85.30
18819;BME280;9537;45.594;9.294;2023-12-04T03:54:12;100319.63;;;2.03;85.59
18819;BME280;9537;45.594;9.294;2023-12-04T03:55:14;100318.75;;;2.03;85.91
18819;BME280;9537;45.594;9.294;2023-12-04T03:56:17;100325.75;;;2.02;85.96
18819;BME280;9537;45.594;9.294;2023-12-04T03:57:18;100324.16;;;2.00;85.50
18819;BME280;9537;45.594;9.294;2023-12-04T03:58:19;100323.13;;;2.02;85.46
18819;BME280;9537;45.594;9.294;2023-12-04T03:59:20;100332.72;;;2.02;85.38
18819;BME280;9537;45.594;9.294;2023-12-04T04:00:22;100324.16;;;2.00;85.56
18819;BME280;9537;45.594;9.294;2023-12-04T04:01:23;100313.75;;;2.00;85.61
18819;BME280;9537;45.594;9.294;2023-12-04T04:02:25;100318.88;;;2.01;85.25
18819;BME280;9537;45.594;9.294;2023-12-04T04:03:25;100325.13;;;1.99;84.77
18819;BME280;9537;45.594;9.294;2023-12-04T04:04:27;100319.28;;;1.95;85.11
18819;BME280;9537;45.594;9.294;2023-12-04T04:05:28;100314.28;;;1.92;85.34
18819;BME280;9537;45.594;9.294;2023-12-04T04:06:30;100324.03;;;1.89;85.31
18819;BME280;9537;45.594;9.294;2023-12-04T04:07:31;100320.41;;;1.91;85.54
18819;BME280;9537;45.594;9.294;2023-12-04T04:08:32;100315.31;;;1.90;85.29
18819;BME280;9537;45.594;9.294;2023-12-04T04:09:33;100325.72;;;1.90;85.52
18819;BME280;9537;45.594;9.294;2023-12-04T04:10:36;100318.00;;;1.88;85.70
18819;BME280;9537;45.594;9.294;2023-12-04T04:11:39;100318.13;;;1.87;85.62
18819;BME280;9537;45.594;9.294;2023-12-04T04:12:41;100317.47;;;1.83;85.83
18819;BME280;9537;45.594;9.294;2023-12-04T04:13:42;100320.06;;;1.83;85.68
18819;BME280;9537;45.594;9.294;2023-12-04T04:14:42;100313.13;;;1.84;85.84
18819;BME280;9537;45.594;9.294;2023-12-04T04:15:44;100308.63;;;1.86;85.94
18819;BME280;9537;45.594;9.294;2023-12-04T04:16:46;100307.69;;;1.87;85.27
18819;BME280;9537;45.594;9.294;2023-12-04T04:17:47;100308.53;;;1.87;85.54
18819;BME280;9537;45.594;9.294;2023-12-04T04:18:48;100307.59;;;1.88;85.51
18819;BME280;9537;45.594;9.294;2023-12-04T04:19:49;100305.94;;;1.87;85.33
18819;BME280;9537;45.594;9.294;2023-12-04T04:20:51;100297.91;;;1.90;85.83
18819;BME280;9537;45.594;9.294;2023-12-04T04:21:51;100293.53;;;1.91;85.23
18819;BME280;9537;45.594;9.294;2023-12-04T04:22:53;100292.59;;;1.92;85.62
18819;BME280;9537;45.594;9.294;2023-12-04T04:23:54;100289.06;;;1.93;85.63
18819;BME280;9537;45.594;9.294;2023-12-04T04:24:56;100293.31;;;1.94;86.07
18819;BME280;9537;45.594;9.294;2023-12-04T04:25:57;100294.06;;;1.96;85.64
18819;BME280;9537;45.594;9.294;2023-12-04T04:27:00;100289.69;;;1.96;85.31
18819;BME280;9537;45.594;9.294;2023-12-04T04:28:01;100299.06;;;1.99;85.66
18819;BME280;9537;45.594;9.294;2023-12-04T04:29:03;100297.91;;;2.03;85.28
18819;BME280;9537;45.594;9.294;2023-12-04T04:30:04;100298.97;;;2.00;85.68
18819;BME280;9537;45.594;9.294;2023-12-04T04:31:07;100302.41;;;2.01;85.04
18819;BME280;9537;45.594;9.294;2023-12-04T04:32:07;100304.91;;;2.02;85.51
18819;BME280;9537;45.594;9.294;2023-12-04T04:33:09;100302.28;;;2.02;85.49
18819;BME280;9537;45.594;9.294;2023-12-04T04:34:11;100308.53;;;2.00;85.40
18819;BME280;9537;45.594;9.294;2023-12-04T04:35:13;100303.66;;;1.95;85.24
18819;BME280;9537;45.594;9.294;2023-12-04T04:36:14;100306.34;;;1.94;85.41
18819;BME280;9537;45.594;9.294;2023-12-04T04:37:15;100309.06;;;1.92;85.37
18819;BME280;9537;45.594;9.294;2023-12-04T04:38:16;100305.81;;;1.89;85.48
18819;BME280;9537;45.594;9.294;2023-12-04T04:39:18;100308.31;;;1.90;84.99
18819;BME280;9537;45.594;9.294;2023-12-04T04:40:19;100308.31;;;1.90;85.53
18819;BME280;9537;45.594;9.294;2023-12-04T04:41:21;100306.47;;;1.92;85.63
18819;BME280;9537;45.594;9.294;2023-12-04T04:42:23;100312.59;;;1.91;85.64
18819;BME280;9537;45.594;9.294;2023-12-04T04:43:25;100309.91;;;1.93;85.72
18819;BME280;9537;45.594;9.294;2023-12-04T04:44:26;100315.09;;;1.93;85.94
18819;BME280;9537;45.594;9.294;2023-12-04T04:45:27;100313.44;;;1.92;85.63
18819;BME280;9537;45.594;9.294;2023-12-04T04:46:28;100312.72;;;1.90;86.35
18819;BME280;9537;45.594;9.294;2023-12-04T04:47:30;100316.06;;;1.92;85.63
18819;BME280;9537;45.594;9.294;2023-12-04T04:48:31;100316.75;;;1.94;86.41
18819;BME280;9537;45.594;9.294;2023-12-04T04:49:33;100318.53;;;1.93;86.42
18819;BME280;9537;45.594;9.294;2023-12-04T04:50:33;100311.75;;;1.91;86.09
18819;BME280;9537;45.594;9.294;2023-12-04T04:51:34;100318.47;;;1.95;86.00
18819;BME280;9537;45.594;9.294;2023-12-04T04:52:36;100319.16;;;1.97;86.28
18819;BME280;9537;45.594;9.294;2023-12-04T04:53:37;100325.53;;;1.93;86.01
18819;BME280;9537;45.594;9.294;2023-12-04T04:54:39;100326.66;;;1.89;85.75
18819;BME280;9537;45.594;9.294;2023-12-04T04:55:43;100333.53;;;1.90;86.11
18819;BME280;9537;45.594;9.294;2023-12-04T04:56:44;100324.03;;;1.89;86.32
18819;BME280;9537;45.594;9.294;2023-12-04T04:57:47;100327.38;;;1.91;86.25
18819;BME280;9537;45.594;9.294;2023-12-04T04:58:48;100326.66;;;1.89;86.59
18819;BME280;9537;45.594;9.294;2023-12-04T04:59:49;100330.13;;;1.89;86.44
18819;BME280;9537;45.594;9.294;2023-12-04T05:00:52;100332.06;;;1.86;86.66
18819;BME280;9537;45.594;9.294;2023-12-04T05:01:54;100329.38;;;1.87;86.81
18819;BME280;9537;45.594;9.294;2023-12-04T05:02:54;100332.81;;;1.88;87.16
18819;BME280;9537;45.594;9.294;2023-12-04T05:03:55;100331.97;;;1.87;87.02
18819;BME280;9537;45.594;9.294;2023-12-04T05:04:57;100330.94;;;1.90;86.90
18819;BME280;9537;45.594;9.294;2023-12-04T05:05:58;100335.22;;;1.91;87.43
18819;BME280;9537;45.594;9.294;2023-12-04T05:06:59;100331.47;;;1.95;86.78
18819;BME280;9537;45.594;9.294;2023-12-04T05:08:00;100335.75;;;1.96;86.83
18819;BME280;9537;45.594;9.294;2023-12-04T05:09:02;100334.91;;;1.95;86.47
18819;BME280;9537;45.594;9.294;2023-12-04T05:10:03;100336.91;;;1.92;87.14
18819;BME280;9537;45.594;9.294;2023-12-04T05:11:05;100331.69;;;1.92;86.88
18819;BME280;9537;45.594;9.294;2023-12-04T05:12:06;100332.41;;;1.94;87.13
18819;BME280;9537;45.594;9.294;2023-12-04T05:13:09;100330.75;;;1.93;86.88
18819;BME280;9537;45.594;9.294;2023-12-04T05:14:10;100333.22;;;1.94;86.85
18819;BME280;9537;45.594;9.294;2023-12-04T05:15:11;100331.47;;;1.95;87.45
18819;BME280;9537;45.594;9.294;2023-12-04T05:16:13;100331.47;;;1.95;87.85
18819;BME280;9537;45.594;9.294;2023-12-04T05:17:14;100333.97;;;1.96;87.53
18819;BME280;9537;45.594;9.294;2023-12-04T05:18:15;100335.75;;;1.96;87.04
18819;BME280;9537;45.594;9.294;2023-12-04T05:19:16;100337.31;;;1.98;87.23
18819;BME280;9537;45.594;9.294;2023-12-04T05:20:17;100326.91;;;1.98;87.55
18819;BME280;9537;45.594;9.294;2023-12-04T05:21:19;100326.97;;;1.97;86.99
18819;BME280;9537;45.594;9.294;2023-12-04T05:22:20;100339.91;;;1.98;87.51
18819;BME280;9537;45.594;9.294;2023-12-04T05:23:21;100330.31;;;1.99;87.48
18819;BME280;9537;45.594;9.294;2023-12-04T05:24:22;100327.63;;;2.00;86.89
18819;BME280;9537;45.594;9.294;2023-12-04T05:25:23;100325.03;;;2.00;87.21
18819;BME280;9537;45.594;9.294;2023-12-04T05:26:25;100325.66;;;2.04;87.20
18819;BME280;9537;45.594;9.294;2023-12-04T05:27:25;100329.91;;;2.05;86.78
18819;BME280;9537;45.594;9.294;2023-12-04T05:28:29;100326.41;;;2.06;87.08
18819;BME280;9537;45.594;9.294;2023-12-04T05:29:29;100321.19;;;2.06;86.98
18819;BME280;9537;45.594;9.294;2023-12-04T05:30:31;100324.72;;;2.05;86.84